Time;durP1;ratioP1;P1;durP2;ratioP2;P2;SDS_P1;SDS_P2;PMS_P1;PMS_P2;Temp;Humidity;BMP_temperature;BMP_pressure;BME280_temperature;BME280_humidity;BME280_pressure;Samples;Min_cycle;Max_cycle;Signal;HPM_P1;HPM_P2
2023/03/19 00:01:57;;;;;;;7.13;4.68;;;;;;;;;;5138671;27;20070;-82
2023/03/19 00:04:24;;;;;;;6.20;4.50;;;;;;;;;;5175216;27;20478;-82
2023/03/19 00:06:50;;;;;;;6.68;4.13;;;;;;;;;;5156007;27;20042;-82
2023/03/19 00:09:17;;;;;;;6.18;4.35;;;;;;;;;;5156284;27;20061;-82
2023/03/19 00:11:43;;;;;;;6.60;4.10;;;;;;;;;;5139293;27;20102;-82
2023/03/19 00:14:09;;;;;;;5.93;4.05;;;;;;;;;;5142397;27;20045;-82
2023/03/19 00:16:35;;;;;;;6.75;3.70;;;;;;;;;;5138655;27;20065;-82
2023/03/19 00:19:02;;;;;;;5.22;3.47;;;;;;;;;;5174790;27;20034;-82
2023/03/19 00:21:28;;;;;;;5.75;3.47;;;;;;;;;;5141821;27;20038;-81
2023/03/19 00:23:59;;;;;;;5.93;3.45;;;;;;;;;;5156122;27;20034;-82
2023/03/19 00:26:27;;;;;;;5.35;3.10;;;;;;;;;;5122431;27;20102;-81
2023/03/19 00:28:53;;;;;;;6.47;3.35;;;;;;;;;;5155844;27;20041;-82
2023/03/19 00:31:19;;;;;;;4.13;2.70;;;;;;;;;;5155815;27;20039;-82
2023/03/19 00:33:45;;;;;;;4.63;2.92;;;;;;;;;;5138721;27;20109;-81
2023/03/19 00:36:11;;;;;;;4.38;2.95;;;;;;;;;;5156366;27;20042;-81
2023/03/19 00:38:38;;;;;;;4.32;2.80;;;;;;;;;;5133619;27;20035;-81
2023/03/19 00:41:06;;;;;;;3.85;2.80;;;;;;;;;;5135282;27;20376;-81
2023/03/19 00:43:32;;;;;;;5.50;2.53;;;;;;;;;;5149841;27;20135;-81
2023/03/19 00:45:58;;;;;;;4.97;3.20;;;;;;;;;;5145123;27;20095;-80
2023/03/19 00:48:25;;;;;;;5.05;2.60;;;;;;;;;;5140318;27;20039;-81
2023/03/19 00:50:51;;;;;;;5.38;2.70;;;;;;;;;;5143562;27;20049;-81
2023/03/19 00:53:17;;;;;;;3.42;2.40;;;;;;;;;;5174914;27;20069;-80
2023/03/19 00:55:43;;;;;;;3.92;2.65;;;;;;;;;;5141765;27;20038;-81
2023/03/19 00:58:10;;;;;;;4.55;2.80;;;;;;;;;;5144127;27;20436;-80
2023/03/19 01:00:37;;;;;;;4.85;2.47;;;;;;;;;;5136822;27;20117;-80
2023/03/19 01:03:05;;;;;;;3.78;2.20;;;;;;;;;;5145239;27;20471;-82
2023/03/19 01:05:31;;;;;;;4.47;2.63;;;;;;;;;;5152187;27;20049;-81
2023/03/19 01:07:57;;;;;;;5.30;3.20;;;;;;;;;;5138317;27;20038;-80
2023/03/19 01:10:24;;;;;;;6.10;2.70;;;;;;;;;;5175694;27;20053;-80
2023/03/19 01:12:50;;;;;;;4.15;2.80;;;;;;;;;;5156936;27;20125;-80
2023/03/19 01:15:17;;;;;;;6.00;3.13;;;;;;;;;;5167175;27;20041;-81
2023/03/19 01:17:44;;;;;;;4.15;2.30;;;;;;;;;;5145773;27;20502;-80
2023/03/19 01:20:17;;;;;;;4.03;2.30;;;;;;;;;;5178502;27;20525;-80
2023/03/19 01:22:44;;;;;;;5.15;2.33;;;;;;;;;;5145570;27;20043;-80
2023/03/19 01:25:11;;;;;;;4.10;2.45;;;;;;;;;;5159610;27;20109;-80
2023/03/19 01:27:37;;;;;;;4.63;2.47;;;;;;;;;;5165705;27;20083;-80
2023/03/19 01:30:04;;;;;;;5.25;2.50;;;;;;;;;;5162033;27;20114;-80
2023/03/19 01:32:30;;;;;;;3.85;2.40;;;;;;;;;;5142411;27;20034;-80
2023/03/19 01:34:56;;;;;;;5.22;2.45;;;;;;;;;;5159595;27;20050;-81
2023/03/19 01:37:22;;;;;;;4.85;2.53;;;;;;;;;;5142361;27;20038;-81
2023/03/19 01:39:48;;;;;;;10.50;3.58;;;;;;;;;;5142486;27;20038;-81
2023/03/19 01:42:14;;;;;;;6.10;2.45;;;;;;;;;;5159018;27;20046;-81
2023/03/19 01:44:41;;;;;;;5.78;2.90;;;;;;;;;;5159423;27;20094;-81
2023/03/19 01:47:27;;;;;;;4.38;2.35;;;;;;;;;;5158703;27;20076;-81
2023/03/19 01:49:54;;;;;;;5.60;2.30;;;;;;;;;;5107424;27;20058;-80
2023/03/19 01:52:21;;;;;;;4.82;2.50;;;;;;;;;;5133908;27;20053;-81
2023/03/19 01:54:47;;;;;;;3.78;2.50;;;;;;;;;;5140040;27;20037;-82
2023/03/19 01:57:14;;;;;;;5.28;2.17;;;;;;;;;;5149269;27;20049;-81
2023/03/19 01:59:46;;;;;;;6.50;2.78;;;;;;;;;;5158975;27;20046;-81
2023/03/19 02:02:28;;;;;;;3.90;2.40;;;;;;;;;;5140924;27;20039;-81
2023/03/19 02:04:57;;;;;;;3.70;2.40;;;;;;;;;;5124542;27;20479;-81
2023/03/19 02:07:24;;;;;;;4.00;2.42;;;;;;;;;;5138458;27;20046;-80
2023/03/19 02:09:50;;;;;;;3.42;2.17;;;;;;;;;;5124680;27;20051;-80
2023/03/19 02:12:17;;;;;;;4.32;2.63;;;;;;;;;;5151875;27;20448;-80
2023/03/19 02:14:43;;;;;;;4.75;2.33;;;;;;;;;;5149811;27;20091;-80
2023/03/19 02:17:10;;;;;;;5.53;2.40;;;;;;;;;;5144096;27;20084;-80
2023/03/19 02:19:42;;;;;;;3.90;2.53;;;;;;;;;;5159078;27;20065;-80
2023/03/19 02:22:09;;;;;;;4.15;2.50;;;;;;;;;;5141985;27;20043;-80
2023/03/19 02:24:40;;;;;;;4.88;2.55;;;;;;;;;;5158936;27;20078;-80
2023/03/19 02:27:08;;;;;;;4.15;2.85;;;;;;;;;;5158580;27;20475;-80
2023/03/19 02:29:34;;;;;;;4.72;2.80;;;;;;;;;;5154032;27;20364;-80
2023/03/19 02:32:02;;;;;;;5.57;3.22;;;;;;;;;;5138970;27;20038;-80
2023/03/19 02:34:31;;;;;;;6.15;3.42;;;;;;;;;;5129020;27;20492;-81
2023/03/19 02:37:01;;;;;;;4.53;3.10;;;;;;;;;;5143166;27;20038;-80
2023/03/19 02:39:36;;;;;;;4.63;3.30;;;;;;;;;;5158276;27;20087;-80
2023/03/19 02:42:03;;;;;;;5.55;3.55;;;;;;;;;;5132500;27;20487;-81
2023/03/19 02:44:29;;;;;;;5.57;4.13;;;;;;;;;;5153012;27;20431;-81
2023/03/19 02:46:55;;;;;;;6.32;4.28;;;;;;;;;;5158350;27;20038;-81
2023/03/19 02:49:21;;;;;;;6.85;4.18;;;;;;;;;;5157847;27;20415;-80
2023/03/19 02:51:48;;;;;;;6.25;4.75;;;;;;;;;;5158673;27;20530;-80
2023/03/19 02:54:14;;;;;;;6.95;4.93;;;;;;;;;;5137856;27;20137;-80
2023/03/19 02:56:40;;;;;;;8.45;4.95;;;;;;;;;;5137680;27;20053;-80
2023/03/19 02:59:06;;;;;;;8.15;5.05;;;;;;;;;;5138202;27;20118;-80
2023/03/19 03:01:32;;;;;;;7.80;5.47;;;;;;;;;;5137185;27;20047;-80
2023/03/19 03:03:58;;;;;;;8.23;5.43;;;;;;;;;;5127156;27;20043;-80
2023/03/19 03:06:24;;;;;;;8.25;5.72;;;;;;;;;;5175222;27;20394;-80
2023/03/19 03:08:51;;;;;;;9.07;5.75;;;;;;;;;;5157865;27;20073;-80
2023/03/19 03:11:17;;;;;;;7.88;5.60;;;;;;;;;;5154128;27;20502;-81
2023/03/19 03:13:43;;;;;;;9.38;5.80;;;;;;;;;;5130551;27;20126;-80
2023/03/19 03:16:09;;;;;;;10.70;6.25;;;;;;;;;;5146000;27;20046;-80
2023/03/19 03:18:35;;;;;;;8.45;5.68;;;;;;;;;;5142665;27;20052;-80
2023/03/19 03:21:02;;;;;;;9.35;5.93;;;;;;;;;;5136856;27;20046;-81
2023/03/19 03:23:28;;;;;;;8.77;5.40;;;;;;;;;;5146195;27;20454;-82
2023/03/19 03:25:54;;;;;;;9.85;5.88;;;;;;;;;;5131914;27;20046;-82
2023/03/19 03:28:20;;;;;;;9.73;6.00;;;;;;;;;;5133449;27;20042;-81
2023/03/19 03:30:47;;;;;;;8.48;6.15;;;;;;;;;;5137299;27;20125;-80
2023/03/19 03:33:14;;;;;;;10.35;6.15;;;;;;;;;;5119587;27;20470;-80
2023/03/19 03:35:40;;;;;;;8.57;6.22;;;;;;;;;;5136782;27;20118;-80
2023/03/19 03:38:07;;;;;;;9.55;6.22;;;;;;;;;;5133389;27;20046;-82
2023/03/19 03:40:33;;;;;;;9.75;6.28;;;;;;;;;;5136219;27;20039;-81
2023/03/19 03:43:00;;;;;;;9.48;6.78;;;;;;;;;;5128185;27;20113;-81
2023/03/19 03:45:26;;;;;;;8.77;6.72;;;;;;;;;;5155872;27;20072;-82
2023/03/19 03:47:52;;;;;;;10.48;6.97;;;;;;;;;;5108940;27;20531;-82
2023/03/19 03:50:18;;;;;;;10.00;6.80;;;;;;;;;;5175363;27;20038;-82
2023/03/19 03:52:44;;;;;;;11.95;7.60;;;;;;;;;;5139978;27;20042;-80
2023/03/19 03:55:10;;;;;;;12.07;7.70;;;;;;;;;;5146024;27;20050;-83
2023/03/19 03:57:37;;;;;;;12.57;8.00;;;;;;;;;;5153220;27;20420;-80
2023/03/19 04:00:03;;;;;;;11.75;7.20;;;;;;;;;;5156737;27;20121;-82
2023/03/19 04:02:30;;;;;;;12.88;8.10;;;;;;;;;;5150793;27;20048;-82
2023/03/19 04:04:56;;;;;;;14.60;7.97;;;;;;;;;;5139245;27;20113;-82
2023/03/19 04:07:22;;;;;;;12.77;8.07;;;;;;;;;;5139090;27;20049;-80
2023/03/19 04:09:49;;;;;;;11.48;8.45;;;;;;;;;;5107706;27;20054;-82
2023/03/19 04:12:16;;;;;;;15.43;8.88;;;;;;;;;;5139357;27;20042;-80
2023/03/19 04:14:42;;;;;;;14.40;9.20;;;;;;;;;;5142271;27;20525;-82
2023/03/19 04:17:08;;;;;;;14.13;9.25;;;;;;;;;;5147475;27;20043;-82
2023/03/19 04:19:34;;;;;;;13.45;9.25;;;;;;;;;;5150138;27;20432;-81
2023/03/19 04:22:02;;;;;;;13.88;9.02;;;;;;;;;;5119118;27;20122;-81
2023/03/19 04:24:28;;;;;;;13.82;9.02;;;;;;;;;;5114554;27;20504;-82
2023/03/19 04:26:54;;;;;;;15.40;9.30;;;;;;;;;;5138936;27;20098;-81
2023/03/19 04:29:21;;;;;;;14.35;9.35;;;;;;;;;;5174805;27;20034;-82
2023/03/19 04:31:47;;;;;;;13.57;9.27;;;;;;;;;;5141890;27;20046;-82
2023/03/19 04:34:13;;;;;;;15.43;10.15;;;;;;;;;;5174929;27;20038;-82
2023/03/19 04:36:40;;;;;;;13.15;8.93;;;;;;;;;;5138511;27;20042;-80
2023/03/19 04:39:06;;;;;;;14.88;9.55;;;;;;;;;;5108445;27;20505;-82
2023/03/19 04:41:33;;;;;;;13.35;9.18;;;;;;;;;;5125422;27;20139;-82
2023/03/19 04:43:59;;;;;;;16.27;10.30;;;;;;;;;;5135565;27;20038;-80
2023/03/19 04:46:26;;;;;;;15.45;9.98;;;;;;;;;;5156755;27;20095;-81
2023/03/19 04:48:52;;;;;;;15.23;9.93;;;;;;;;;;5143048;27;20066;-80
2023/03/19 04:51:20;;;;;;;14.93;9.85;;;;;;;;;;5160341;27;20048;-81
2023/03/19 04:53:46;;;;;;;16.60;10.13;;;;;;;;;;5142777;27;20050;-80
2023/03/19 04:56:15;;;;;;;15.30;10.07;;;;;;;;;;5147387;27;20038;-81
2023/03/19 04:58:41;;;;;;;15.77;10.13;;;;;;;;;;5159941;27;20046;-81
2023/03/19 05:01:08;;;;;;;16.95;9.65;;;;;;;;;;5148779;27;20509;-80
2023/03/19 05:03:34;;;;;;;14.65;9.90;;;;;;;;;;5133865;27;20046;-80
2023/03/19 05:06:00;;;;;;;14.55;9.80;;;;;;;;;;5126026;27;20121;-81
2023/03/19 05:08:26;;;;;;;18.63;10.10;;;;;;;;;;5121678;27;20114;-81
2023/03/19 05:10:52;;;;;;;14.65;9.15;;;;;;;;;;5138984;27;20043;-81
2023/03/19 05:13:18;;;;;;;17.13;10.57;;;;;;;;;;5139344;27;20046;-80
2023/03/19 05:15:46;;;;;;;15.45;9.68;;;;;;;;;;5139276;27;20043;-80
2023/03/19 05:18:12;;;;;;;16.92;10.50;;;;;;;;;;5122632;27;20487;-81
2023/03/19 05:20:39;;;;;;;16.92;10.15;;;;;;;;;;5138838;27;20039;-82
2023/03/19 05:23:06;;;;;;;15.27;9.82;;;;;;;;;;5123148;27;20046;-81
2023/03/19 05:25:34;;;;;;;16.13;10.27;;;;;;;;;;5142289;27;20056;-80
2023/03/19 05:28:00;;;;;;;17.23;10.43;;;;;;;;;;5142477;27;20050;-80
2023/03/19 05:30:26;;;;;;;18.98;11.27;;;;;;;;;;5138921;27;20031;-82
2023/03/19 05:32:53;;;;;;;20.13;10.95;;;;;;;;;;5133900;27;20043;-80
2023/03/19 05:35:19;;;;;;;17.50;10.32;;;;;;;;;;5156079;27;20069;-80
2023/03/19 05:37:45;;;;;;;18.13;10.43;;;;;;;;;;5138320;27;20039;-82
2023/03/19 05:40:12;;;;;;;17.30;10.90;;;;;;;;;;5155100;27;20137;-81
2023/03/19 05:42:38;;;;;;;21.55;12.10;;;;;;;;;;5124942;27;20049;-82
2023/03/19 05:45:04;;;;;;;23.20;12.30;;;;;;;;;;5159522;27;20072;-80
2023/03/19 05:47:31;;;;;;;18.05;11.75;;;;;;;;;;5130389;27;20458;-80
2023/03/19 05:49:57;;;;;;;22.38;12.65;;;;;;;;;;5159368;27;20041;-81
2023/03/19 05:52:23;;;;;;;23.60;12.05;;;;;;;;;;5159022;27;20038;-81
2023/03/19 05:54:50;;;;;;;22.65;12.80;;;;;;;;;;5159237;27;20035;-82
2023/03/19 05:57:16;;;;;;;24.52;12.70;;;;;;;;;;5142221;27;20050;-81
2023/03/19 05:59:42;;;;;;;23.90;13.30;;;;;;;;;;5169106;27;20479;-80
2023/03/19 06:02:08;;;;;;;25.90;13.10;;;;;;;;;;5153291;27;20037;-81
2023/03/19 06:04:34;;;;;;;23.38;13.43;;;;;;;;;;5158667;27;20079;-82
2023/03/19 06:07:00;;;;;;;22.40;13.07;;;;;;;;;;5158735;27;20038;-80
2023/03/19 06:09:27;;;;;;;24.67;13.23;;;;;;;;;;5137801;27;20102;-80
2023/03/19 06:11:53;;;;;;;25.73;13.43;;;;;;;;;;5138132;27;20038;-80
2023/03/19 06:14:19;;;;;;;22.48;13.20;;;;;;;;;;5140905;27;20372;-82
2023/03/19 06:16:45;;;;;;;22.00;13.13;;;;;;;;;;5155186;27;20376;-82
2023/03/19 06:19:11;;;;;;;20.38;12.43;;;;;;;;;;5138305;27;20141;-80
2023/03/19 06:21:37;;;;;;;22.23;13.23;;;;;;;;;;5154983;27;20535;-81
2023/03/19 06:24:03;;;;;;;19.55;11.82;;;;;;;;;;5155429;27;20035;-80
2023/03/19 06:26:30;;;;;;;17.48;11.10;;;;;;;;;;5140096;27;20047;-82
2023/03/19 06:28:56;;;;;;;20.63;11.52;;;;;;;;;;5147806;27;20066;-82
2023/03/19 06:31:22;;;;;;;14.70;10.23;;;;;;;;;;5148025;27;20043;-82
2023/03/19 06:33:49;;;;;;;14.90;9.82;;;;;;;;;;5154510;27;20109;-82
2023/03/19 06:36:16;;;;;;;12.98;8.60;;;;;;;;;;5143783;27;20047;-80
2023/03/19 06:38:42;;;;;;;9.88;7.35;;;;;;;;;;5152176;27;20070;-82
2023/03/19 06:41:08;;;;;;;9.43;7.07;;;;;;;;;;5154729;27;20042;-83
2023/03/19 06:43:36;;;;;;;9.13;6.57;;;;;;;;;;5155621;27;20035;-83
2023/03/19 06:46:02;;;;;;;8.63;7.00;;;;;;;;;;5154736;27;20102;-80
2023/03/19 06:48:29;;;;;;;9.40;6.93;;;;;;;;;;5141936;27;20035;-81
2023/03/19 06:50:55;;;;;;;8.98;6.60;;;;;;;;;;5123228;27;20570;-81
2023/03/19 06:53:21;;;;;;;9.90;7.03;;;;;;;;;;5142794;27;20117;-81
2023/03/19 06:55:47;;;;;;;9.50;6.55;;;;;;;;;;5148545;27;20471;-81
2023/03/19 06:58:13;;;;;;;8.40;6.75;;;;;;;;;;5134384;27;20484;-81
2023/03/19 07:00:40;;;;;;;9.85;6.95;;;;;;;;;;5130353;27;20114;-81
2023/03/19 07:03:06;;;;;;;9.48;7.13;;;;;;;;;;5154609;27;20049;-83
2023/03/19 07:05:32;;;;;;;8.38;6.78;;;;;;;;;;5140011;27;20479;-82
2023/03/19 07:07:59;;;;;;;8.40;7.00;;;;;;;;;;5116735;27;20502;-81
2023/03/19 07:10:25;;;;;;;10.55;7.28;;;;;;;;;;5116619;27;20084;-81
2023/03/19 07:12:51;;;;;;;9.82;7.25;;;;;;;;;;5133848;27;20501;-81
2023/03/19 07:15:19;;;;;;;10.52;7.70;;;;;;;;;;5145050;27;20436;-81
2023/03/19 07:17:48;;;;;;;10.68;8.13;;;;;;;;;;5151051;27;20115;-81
2023/03/19 07:20:15;;;;;;;11.48;8.30;;;;;;;;;;5144421;27;20482;-83
2023/03/19 07:22:41;;;;;;;11.02;8.40;;;;;;;;;;5151914;27;20070;-83
2023/03/19 07:25:07;;;;;;;10.82;8.00;;;;;;;;;;5148207;27;20487;-81
2023/03/19 07:27:33;;;;;;;8.75;7.18;;;;;;;;;;5133376;27;20047;-81
2023/03/19 07:29:59;;;;;;;9.40;7.40;;;;;;;;;;5118056;27;20637;-82
2023/03/19 07:32:25;;;;;;;11.60;7.85;;;;;;;;;;5136460;27;20046;-83
2023/03/19 07:34:52;;;;;;;9.85;7.90;;;;;;;;;;5153403;27;20038;-83
2023/03/19 07:37:18;;;;;;;10.25;8.13;;;;;;;;;;5153745;27;20073;-82
2023/03/19 07:39:44;;;;;;;10.80;8.40;;;;;;;;;;5153011;27;20122;-82
2023/03/19 07:42:10;;;;;;;10.75;8.32;;;;;;;;;;5136310;27;20069;-82
2023/03/19 07:44:37;;;;;;;12.15;8.55;;;;;;;;;;5136914;27;20045;-81
2023/03/19 07:47:03;;;;;;;12.25;8.98;;;;;;;;;;5138535;27;20050;-83
2023/03/19 07:49:29;;;;;;;11.43;8.40;;;;;;;;;;5145418;27;20058;-81
2023/03/19 07:51:55;;;;;;;12.95;9.38;;;;;;;;;;5133863;27;20071;-81
2023/03/19 07:54:22;;;;;;;14.48;10.07;;;;;;;;;;5125219;27;20042;-82
2023/03/19 07:56:48;;;;;;;13.05;10.00;;;;;;;;;;5141099;27;20111;-82
2023/03/19 07:59:14;;;;;;;12.20;8.95;;;;;;;;;;5125301;27;20047;-82
2023/03/19 08:01:40;;;;;;;15.02;10.40;;;;;;;;;;5137330;27;20046;-82
2023/03/19 08:04:07;;;;;;;14.75;10.18;;;;;;;;;;5139010;27;20046;-81
2023/03/19 08:06:33;;;;;;;13.75;9.88;;;;;;;;;;5153571;27;20039;-82
2023/03/19 08:08:59;;;;;;;16.45;10.90;;;;;;;;;;5121001;27;20096;-81
2023/03/19 08:11:25;;;;;;;14.95;10.80;;;;;;;;;;5139626;27;20035;-81
2023/03/19 08:13:51;;;;;;;14.98;10.43;;;;;;;;;;5141148;27;20042;-81
2023/03/19 08:16:18;;;;;;;14.43;10.60;;;;;;;;;;5132893;27;20035;-81
2023/03/19 08:18:44;;;;;;;15.50;10.57;;;;;;;;;;5133518;27;20111;-82
2023/03/19 08:21:10;;;;;;;13.50;9.07;;;;;;;;;;5146084;27;20027;-82
2023/03/19 08:23:36;;;;;;;13.63;9.52;;;;;;;;;;5119345;27;20045;-81
2023/03/19 08:26:02;;;;;;;15.30;9.75;;;;;;;;;;5115244;27;20039;-82
2023/03/19 08:28:28;;;;;;;16.15;10.07;;;;;;;;;;5132956;27;20479;-82
2023/03/19 08:30:54;;;;;;;15.27;9.95;;;;;;;;;;5125995;27;20046;-82
2023/03/19 08:33:21;;;;;;;14.50;9.85;;;;;;;;;;5115275;27;20425;-82
2023/03/19 08:35:47;;;;;;;15.98;10.60;;;;;;;;;;5139956;27;20085;-83
2023/03/19 08:38:13;;;;;;;13.98;9.90;;;;;;;;;;5139013;27;20050;-81
2023/03/19 08:40:39;;;;;;;15.20;10.20;;;;;;;;;;5137810;27;20066;-82
2023/03/19 08:43:06;;;;;;;14.30;10.32;;;;;;;;;;5140661;27;20611;-82
2023/03/19 08:45:32;;;;;;;15.85;10.98;;;;;;;;;;5150438;27;20043;-82
2023/03/19 08:47:58;;;;;;;16.08;10.75;;;;;;;;;;5142582;27;20118;-82
2023/03/19 08:50:24;;;;;;;16.52;10.73;;;;;;;;;;5147796;27;20038;-81
2023/03/19 08:52:50;;;;;;;16.45;10.57;;;;;;;;;;5139785;27;20039;-82
2023/03/19 08:55:17;;;;;;;17.58;11.30;;;;;;;;;;5138373;27;20055;-82
2023/03/19 08:57:43;;;;;;;17.65;11.52;;;;;;;;;;5132288;28;20039;-81
2023/03/19 09:00:09;;;;;;;17.90;12.38;;;;;;;;;;5127091;27;20091;-82
2023/03/19 09:02:35;;;;;;;19.98;12.45;;;;;;;;;;5146327;27;20062;-81
2023/03/19 09:05:01;;;;;;;18.40;11.85;;;;;;;;;;5125190;27;20041;-82
2023/03/19 09:07:27;;;;;;;17.45;11.38;;;;;;;;;;5133162;27;20039;-80
2023/03/19 09:09:54;;;;;;;16.92;11.50;;;;;;;;;;5103430;28;20082;-79
2023/03/19 09:12:20;;;;;;;17.77;11.68;;;;;;;;;;5129722;27;20047;-81
2023/03/19 09:14:46;;;;;;;17.15;11.88;;;;;;;;;;5156164;27;20042;-81
2023/03/19 09:17:17;;;;;;;19.13;11.63;;;;;;;;;;5155841;27;20042;-81
2023/03/19 09:19:43;;;;;;;19.85;12.23;;;;;;;;;;5134009;27;20039;-81
2023/03/19 09:22:09;;;;;;;19.33;12.10;;;;;;;;;;5132134;28;20364;-80
2023/03/19 09:24:35;;;;;;;17.45;11.40;;;;;;;;;;5149292;27;20046;-82
2023/03/19 09:27:01;;;;;;;17.55;12.10;;;;;;;;;;5159691;27;20529;-83
2023/03/19 09:29:28;;;;;;;18.55;11.70;;;;;;;;;;5138780;27;20065;-82
2023/03/19 09:31:54;;;;;;;18.00;12.10;;;;;;;;;;5136565;27;20030;-81
2023/03/19 09:34:20;;;;;;;18.50;12.35;;;;;;;;;;5122379;27;20043;-81
2023/03/19 09:36:46;;;;;;;17.80;12.30;;;;;;;;;;5123699;27;20456;-81
2023/03/19 09:39:12;;;;;;;21.15;12.93;;;;;;;;;;5142127;27;20106;-81
2023/03/19 09:41:38;;;;;;;19.83;12.43;;;;;;;;;;5142271;27;20046;-81
2023/03/19 09:44:04;;;;;;;21.77;13.32;;;;;;;;;;5177536;27;20497;-81
2023/03/19 09:46:30;;;;;;;22.27;13.73;;;;;;;;;;5159422;27;20070;-81
2023/03/19 09:49:00;;;;;;;21.30;13.70;;;;;;;;;;5144399;27;20049;-81
2023/03/19 09:51:41;;;;;;;22.83;13.90;;;;;;;;;;5178053;27;20038;-81
2023/03/19 09:54:13;;;;;;;24.10;13.90;;;;;;;;;;5159045;27;20034;-81
2023/03/19 09:56:39;;;;;;;23.17;13.77;;;;;;;;;;5142077;27;20038;-81
2023/03/19 09:59:08;;;;;;;23.75;14.07;;;;;;;;;;5158878;27;20045;-81
2023/03/19 10:01:36;;;;;;;21.05;13.63;;;;;;;;;;5156764;27;20049;-81
2023/03/19 10:04:08;;;;;;;21.73;13.82;;;;;;;;;;5162690;27;20483;-81
2023/03/19 10:06:35;;;;;;;23.75;14.68;;;;;;;;;;5177678;27;20042;-81
2023/03/19 10:09:20;;;;;;;24.27;13.82;;;;;;;;;;5141656;27;20109;-80
2023/03/19 10:12:07;;;;;;;23.38;14.15;;;;;;;;;;5158979;27;20490;-80
2023/03/19 10:14:36;;;;;;;23.60;15.18;;;;;;;;;;5139722;27;20501;-80
2023/03/19 10:17:03;;;;;;;22.95;14.00;;;;;;;;;;5149211;27;20042;-80
2023/03/19 10:19:46;;;;;;;23.30;13.73;;;;;;;;;;5158745;27;20030;-81
2023/03/19 10:22:15;;;;;;;22.13;13.95;;;;;;;;;;5129005;27;20083;-81
2023/03/19 10:24:44;;;;;;;22.58;14.52;;;;;;;;;;5135192;27;20038;-81
2023/03/19 10:27:12;;;;;;;22.35;14.30;;;;;;;;;;5158513;27;20038;-80
2023/03/19 10:29:40;;;;;;;22.98;14.27;;;;;;;;;;5144919;27;20049;-80
2023/03/19 10:32:19;;;;;;;21.77;13.77;;;;;;;;;;5157444;27;20034;-80
2023/03/19 10:34:47;;;;;;;24.45;14.93;;;;;;;;;;5145373;27;20491;-80
2023/03/19 10:37:18;;;;;;;21.92;13.85;;;;;;;;;;5152079;27;20049;-80
2023/03/19 10:39:45;;;;;;;20.58;13.98;;;;;;;;;;5133225;27;20494;-81
2023/03/19 10:42:30;;;;;;;21.45;14.32;;;;;;;;;;5157736;27;20049;-80
2023/03/19 10:44:59;;;;;;;21.27;13.63;;;;;;;;;;5127294;27;20042;-80
2023/03/19 10:47:26;;;;;;;21.35;13.52;;;;;;;;;;5139819;27;20203;-80
2023/03/19 10:49:52;;;;;;;20.58;13.52;;;;;;;;;;5146339;27;20065;-81
2023/03/19 10:52:18;;;;;;;20.92;13.38;;;;;;;;;;5138285;27;20085;-80
2023/03/19 10:54:45;;;;;;;20.35;12.63;;;;;;;;;;5148703;27;20440;-80
2023/03/19 10:57:21;;;;;;;23.58;13.38;;;;;;;;;;5134715;27;20479;-80
2023/03/19 10:59:47;;;;;;;24.45;13.85;;;;;;;;;;5137659;27;20046;-80
2023/03/19 11:02:16;;;;;;;21.08;13.70;;;;;;;;;;5137005;27;20061;-80
2023/03/19 11:04:43;;;;;;;23.85;14.35;;;;;;;;;;5145007;27;20048;-80
2023/03/19 11:07:11;;;;;;;20.25;13.63;;;;;;;;;;5157602;27;20084;-80
2023/03/19 11:09:38;;;;;;;20.05;12.88;;;;;;;;;;5140441;27;20470;-80
2023/03/19 11:12:07;;;;;;;21.10;13.30;;;;;;;;;;5140798;27;20486;-80
2023/03/19 11:14:38;;;;;;;21.80;14.38;;;;;;;;;;5157449;27;20038;-80
2023/03/19 11:17:06;;;;;;;23.20;14.63;;;;;;;;;;5146494;27;20391;-80
2023/03/19 11:19:39;;;;;;;24.63;15.10;;;;;;;;;;5151725;27;20479;-79
2023/03/19 11:22:09;;;;;;;23.52;14.73;;;;;;;;;;5148149;27;20410;-80
2023/03/19 11:24:42;;;;;;;28.88;16.10;;;;;;;;;;5126088;27;20118;-80
2023/03/19 11:27:10;;;;;;;31.77;18.17;;;;;;;;;;5128996;27;20038;-80
2023/03/19 11:29:39;;;;;;;37.33;19.60;;;;;;;;;;5157485;27;20045;-80
2023/03/19 11:32:13;;;;;;;33.58;18.17;;;;;;;;;;5137868;27;20082;-80
2023/03/19 11:34:39;;;;;;;35.20;19.77;;;;;;;;;;5149020;27;20043;-81
2023/03/19 11:37:27;;;;;;;36.85;19.52;;;;;;;;;;5138258;27;20053;-82
2023/03/19 11:39:53;;;;;;;39.47;19.25;;;;;;;;;;5136752;27;20047;-81
2023/03/19 11:42:28;;;;;;;37.72;19.83;;;;;;;;;;5150828;27;20057;-80
2023/03/19 11:45:00;;;;;;;41.85;21.02;;;;;;;;;;5149183;27;20038;-81
2023/03/19 11:47:45;;;;;;;35.58;18.45;;;;;;;;;;5139826;27;20514;-81
2023/03/19 11:50:30;;;;;;;38.13;19.30;;;;;;;;;;5156935;27;20474;-81
2023/03/19 11:53:02;;;;;;;41.30;20.65;;;;;;;;;;5116406;27;20113;-81
2023/03/19 11:55:39;;;;;;;39.13;19.75;;;;;;;;;;5156621;27;20038;-81
2023/03/19 11:58:08;;;;;;;46.22;22.63;;;;;;;;;;5147922;27;20043;-81
2023/03/19 12:00:43;;;;;;;47.67;22.95;;;;;;;;;;5149351;27;20483;-81
2023/03/19 12:03:18;;;;;;;44.95;21.85;;;;;;;;;;5147812;27;20038;-81
2023/03/19 12:06:04;;;;;;;47.13;22.30;;;;;;;;;;5138032;27;20050;-80
2023/03/19 12:08:30;;;;;;;45.97;21.85;;;;;;;;;;5139035;27;20121;-81
2023/03/19 12:11:23;;;;;;;43.92;22.08;;;;;;;;;;5156166;27;20141;-80
2023/03/19 12:13:57;;;;;;;47.50;22.35;;;;;;;;;;5118514;27;20057;-80
2023/03/19 12:16:23;;;;;;;43.63;21.75;;;;;;;;;;5141895;27;20443;-81
2023/03/19 12:19:01;;;;;;;41.70;20.95;;;;;;;;;;5144771;27;20042;-81
2023/03/19 12:21:30;;;;;;;42.90;19.92;;;;;;;;;;5133163;27;20127;-81
2023/03/19 12:24:12;;;;;;;40.75;19.95;;;;;;;;;;5140075;27;20099;-81
2023/03/19 12:26:44;;;;;;;38.75;18.98;;;;;;;;;;5137761;27;20483;-81
2023/03/19 12:29:14;;;;;;;35.35;18.58;;;;;;;;;;5156620;27;20070;-81
2023/03/19 12:31:52;;;;;;;34.97;17.20;;;;;;;;;;5123289;27;20395;-81
2023/03/19 12:34:29;;;;;;;39.72;18.00;;;;;;;;;;5136206;27;20030;-80
2023/03/19 12:37:00;;;;;;;37.97;18.55;;;;;;;;;;5152953;27;20042;-81
2023/03/19 12:39:29;;;;;;;40.20;18.80;;;;;;;;;;5156064;27;20038;-81
2023/03/19 12:41:57;;;;;;;40.03;19.70;;;;;;;;;;5141825;27;20103;-81
2023/03/19 12:44:23;;;;;;;40.97;19.17;;;;;;;;;;5130219;27;20038;-81
2023/03/19 12:46:52;;;;;;;38.22;18.90;;;;;;;;;;5150092;27;20052;-81
2023/03/19 12:49:51;;;;;;;42.90;19.33;;;;;;;;;;5155913;27;20070;-81
2023/03/19 12:52:21;;;;;;;40.55;19.35;;;;;;;;;;5080132;27;20039;-81
2023/03/19 12:54:54;;;;;;;40.60;18.98;;;;;;;;;;5145498;27;20042;-81
2023/03/19 12:57:37;;;;;;;39.10;18.50;;;;;;;;;;5121217;27;20039;-81
2023/03/19 13:00:06;;;;;;;32.20;16.02;;;;;;;;;;5147149;27;20046;-82
2023/03/19 13:02:37;;;;;;;35.85;17.23;;;;;;;;;;5147254;27;20081;-81
2023/03/19 13:05:22;;;;;;;31.10;14.85;;;;;;;;;;5135467;27;20046;-81
2023/03/19 13:07:55;;;;;;;37.60;16.77;;;;;;;;;;5171813;27;20074;-81
2023/03/19 13:10:22;;;;;;;40.20;17.45;;;;;;;;;;5145415;27;20046;-81
2023/03/19 13:12:49;;;;;;;37.42;16.33;;;;;;;;;;5156406;27;20046;-80
2023/03/19 13:15:35;;;;;;;32.33;14.48;;;;;;;;;;5149454;27;20563;-80
2023/03/19 13:18:01;;;;;;;35.08;15.48;;;;;;;;;;5141900;27;20061;-81
2023/03/19 13:20:46;;;;;;;33.72;15.10;;;;;;;;;;5148104;27;20054;-81
2023/03/19 13:23:14;;;;;;;36.72;15.70;;;;;;;;;;5153634;27;20051;-81
2023/03/19 13:25:42;;;;;;;33.67;15.65;;;;;;;;;;5147521;27;20038;-80
2023/03/19 13:28:12;;;;;;;27.90;13.80;;;;;;;;;;5145513;27;20486;-81
2023/03/19 13:30:39;;;;;;;32.58;13.50;;;;;;;;;;5142178;27;20110;-81
2023/03/19 13:33:06;;;;;;;28.40;12.35;;;;;;;;;;5159846;27;20121;-81
2023/03/19 13:35:35;;;;;;;29.42;12.98;;;;;;;;;;5139303;27;20432;-81
2023/03/19 13:38:22;;;;;;;26.63;12.43;;;;;;;;;;5134529;27;20435;-81
2023/03/19 13:40:48;;;;;;;;;;;;;;;;;;5135569;27;20049;-81
2023/03/19 13:43:29;;;;;;;22.60;11.85;;;;;;;;;;5135758;27;19915;-81
2023/03/19 13:46:11;;;;;;;29.10;12.93;;;;;;;;;;5107967;27;20090;-82
2023/03/19 13:48:40;;;;;;;27.77;13.20;;;;;;;;;;5154360;27;20121;-81
2023/03/19 13:51:26;;;;;;;26.13;12.70;;;;;;;;;;5134524;27;20043;-80
2023/03/19 13:54:07;;;;;;;25.00;12.85;;;;;;;;;;5141240;27;20035;-80
2023/03/19 13:56:53;;;;;;;26.48;13.23;;;;;;;;;;5149265;27;20047;-80
2023/03/19 13:59:24;;;;;;;30.85;13.98;;;;;;;;;;5128708;27;20019;-81
2023/03/19 14:01:50;;;;;;;30.05;13.00;;;;;;;;;;5127162;27;20034;-81
2023/03/19 14:04:28;;;;;;;27.48;13.25;;;;;;;;;;5156878;27;20034;-81
2023/03/19 14:06:57;;;;;;;28.15;13.15;;;;;;;;;;5166167;27;20070;-82
2023/03/19 14:09:41;;;;;;;25.70;12.80;;;;;;;;;;5152765;27;20030;-81
2023/03/19 14:12:28;;;;;;;26.63;12.52;;;;;;;;;;5151178;27;20062;-81
2023/03/19 14:14:54;;;;;;;;;;;;;;;;;;5141968;27;20053;-81
2023/03/19 14:17:20;;;;;;;29.13;13.10;;;;;;;;;;5158190;27;19921;-81
2023/03/19 14:19:46;;;;;;;28.38;13.15;;;;;;;;;;5142889;27;20050;-81
2023/03/19 14:22:31;;;;;;;27.92;13.68;;;;;;;;;;5177328;27;20494;-81
2023/03/19 14:25:17;;;;;;;26.55;13.25;;;;;;;;;;5136408;27;20035;-80
2023/03/19 14:27:50;;;;;;;28.15;13.63;;;;;;;;;;5158798;27;20050;-80
2023/03/19 14:30:26;;;;;;;29.52;13.43;;;;;;;;;;5155087;27;20042;-81
2023/03/19 14:32:55;;;;;;;29.10;14.15;;;;;;;;;;5168328;27;20038;-81
2023/03/19 14:35:24;;;;;;;29.67;13.63;;;;;;;;;;5143628;27;20034;-82
2023/03/19 14:37:53;;;;;;;30.67;14.05;;;;;;;;;;5176965;27;20072;-81